Beltdiep — PBYF — position and weather

sailwx.info

Track history (hours):
 
Tides and Currents Weather Stations Pressure Air Temp Water Temp Dewpoint Dewpoint Depression Visibility Wind Speed Wind Dir Waves Ship Positions

Beltdiep

Last reported at 2014-Aug-31 09:33 UTC. Time now 2014-Sep-02 02:16 UTC.
Position N 40°57' E 028°59'.

Length 107 m; draft 4 m.

Type: Ship. MMSI: 246671000.

Date/timePositionNaut miles runAvg speedWind from/ knotsBaromVisibWave heightAir tempDewpointWater temp
2014-Aug-31 09:33N 40°57' E 028°59'8 7.4
2014-Aug-31 08:31N 40°50' E 028°55'1 0.7
2014-Aug-31 07:32N 40°50' E 028°55'1 0.5
2014-Aug-31 06:33N 40°50' E 028°56'2 2.1
2014-Aug-31 05:32N 40°49' E 028°53'4 4.1
2014-Aug-31 04:33N 40°50' E 028°48'240 7.5
2014-Aug-29 20:33N 37°31' E 025°56'9 9.4
2014-Aug-29 19:33N 37°24' E 026°04'10 9.7
2014-Aug-29 18:33N 37°17' E 026°13'10 9.6
2014-Aug-29 17:33N 37°10' E 026°21'9 9.3
2014-Aug-29 16:33N 37°03' E 026°29'19 9.3
2014-Aug-29 14:33N 36°47' E 026°41'9 9.5
2014-Aug-29 13:33N 36°39' E 026°46'61 9.8
2014-Aug-29 07:20N 35°45' E 027°21'29010.1
2014-Aug-28 02:33N 31°20' E 029°43'11 0.3
2014-Aug-26 12:08N 31°11' E 029°52'0 0.3
2014-Aug-26 11:24N 31°11' E 029°51'0 0.0
2014-Aug-26 10:33N 31°11' E 029°51'0 0.0
2014-Aug-26 09:33N 31°11' E 029°51'0 0.0
2014-Aug-26 01:33N 31°11' E 029°51'0 0.0
2014-Aug-25 22:10N 31°11' E 029°51'0 0.0
2014-Aug-25 21:33N 31°11' E 029°51'3 1.1
2014-Aug-25 19:07N 31°10' E 029°48'3 2.9
2014-Aug-25 18:13N 31°12' E 029°46'0 0.3
2014-Aug-25 17:29N 31°12' E 029°46'0 0.2
2014-Aug-25 16:33N 31°12' E 029°46'0 0.2
2014-Aug-25 15:33N 31°12' E 029°46'7 6.0
2014-Aug-25 14:25N 31°15' E 029°39'10 9.5
2014-Aug-25 13:21N 31°20' E 029°29'8 9.5
2014-Aug-25 12:33N 31°23' E 029°21'13 9.9
2014-Aug-25 11:14N 31°29' E 029°07'3010.5
2014-Aug-25 08:24N 31°42' E 028°36'2910.2
2014-Aug-25 05:33N 31°55' E 028°05'  
2014-Aug-22 08:32N 36°18' E 015°14'9 9.1
2014-Aug-22 07:32N 36°21' E 015°03'15 7.3
2014-Aug-22 05:30N 36°26' E 014°46'910.0
2014-Aug-22 04:33N 36°29' E 014°34'1010.2
2014-Aug-22 03:33N 36°32' E 014°22'1010.1
2014-Aug-22 02:33N 36°35' E 014°11'10 9.9
2014-Aug-22 01:33N 36°38' E 013°59'10 9.8
2014-Aug-22 00:34N 36°41' E 013°47'10 9.7
2014-Aug-21 23:33N 36°44' E 013°36'10 9.6
2014-Aug-21 22:31N 36°47' E 013°24'13 9.6
2014-Aug-21 21:08N 36°51' E 013°08'7 9.6
2014-Aug-21 20:24N 36°53' E 012°59'9 9.4
2014-Aug-21 19:27N 36°56' E 012°49'8 9.6
2014-Aug-21 18:33N 36°58' E 012°39'10 9.8
2014-Aug-21 17:33N 37°01' E 012°27'10 9.9
2014-Aug-21 16:34N 37°04' E 012°15'1110.1
2014-Aug-21 15:31N 37°07' E 012°03'31 9.7
2014-Aug-21 12:21N 37°16' E 011°25'8 9.5
2014-Aug-21 11:33N 37°18' E 011°17'10 9.7
2014-Aug-21 10:32N 37°23' E 011°05'  
Track history (hours):
 
Tides and Currents Weather Stations Pressure Air Temp Water Temp Dewpoint Dewpoint Depression Visibility Wind Speed Wind Dir Waves Ship Positions

Beltdiep

Last reported at 2014-Aug-31 09:33 UTC. Time now 2014-Sep-02 02:16 UTC.
Position N 40°57' E 028°59'.

Length 107 m; draft 4 m.

Type: Ship. MMSI: 246671000.

Date/timePositionNaut miles runAvg speedWind from/ knotsBaromVisibWave heightAir tempDewpointWater temp
2014-Aug-31 09:33N 40°57' E 028°59'8 7.4
2014-Aug-31 08:31N 40°50' E 028°55'1 0.7
2014-Aug-31 07:32N 40°50' E 028°55'1 0.5
2014-Aug-31 06:33N 40°50' E 028°56'2 2.1
2014-Aug-31 05:32N 40°49' E 028°53'4 4.1
2014-Aug-31 04:33N 40°50' E 028°48'240 7.5
2014-Aug-29 20:33N 37°31' E 025°56'9 9.4
2014-Aug-29 19:33N 37°24' E 026°04'10 9.7
2014-Aug-29 18:33N 37°17' E 026°13'10 9.6
2014-Aug-29 17:33N 37°10' E 026°21'9 9.3
2014-Aug-29 16:33N 37°03' E 026°29'19 9.3
2014-Aug-29 14:33N 36°47' E 026°41'9 9.5
2014-Aug-29 13:33N 36°39' E 026°46'61 9.8
2014-Aug-29 07:20N 35°45' E 027°21'29010.1
2014-Aug-28 02:33N 31°20' E 029°43'11 0.3
2014-Aug-26 12:08N 31°11' E 029°52'0 0.3
2014-Aug-26 11:24N 31°11' E 029°51'0 0.0
2014-Aug-26 10:33N 31°11' E 029°51'0 0.0
2014-Aug-26 09:33N 31°11' E 029°51'0 0.0
2014-Aug-26 01:33N 31°11' E 029°51'0 0.0
2014-Aug-25 22:10N 31°11' E 029°51'0 0.0
2014-Aug-25 21:33N 31°11' E 029°51'3 1.1
2014-Aug-25 19:07N 31°10' E 029°48'3 2.9
2014-Aug-25 18:13N 31°12' E 029°46'0 0.3
2014-Aug-25 17:29N 31°12' E 029°46'0 0.2
2014-Aug-25 16:33N 31°12' E 029°46'0 0.2
2014-Aug-25 15:33N 31°12' E 029°46'7 6.0
2014-Aug-25 14:25N 31°15' E 029°39'10 9.5
2014-Aug-25 13:21N 31°20' E 029°29'8 9.5
2014-Aug-25 12:33N 31°23' E 029°21'13 9.9
2014-Aug-25 11:14N 31°29' E 029°07'3010.5
2014-Aug-25 08:24N 31°42' E 028°36'2910.2
2014-Aug-25 05:33N 31°55' E 028°05'  
2014-Aug-22 08:32N 36°18' E 015°14'9 9.1
2014-Aug-22 07:32N 36°21' E 015°03'15 7.3
2014-Aug-22 05:30N 36°26' E 014°46'910.0
2014-Aug-22 04:33N 36°29' E 014°34'1010.2
2014-Aug-22 03:33N 36°32' E 014°22'1010.1
2014-Aug-22 02:33N 36°35' E 014°11'10 9.9
2014-Aug-22 01:33N 36°38' E 013°59'10 9.8
2014-Aug-22 00:34N 36°41' E 013°47'10 9.7
2014-Aug-21 23:33N 36°44' E 013°36'10 9.6
2014-Aug-21 22:31N 36°47' E 013°24'13 9.6
2014-Aug-21 21:08N 36°51' E 013°08'7 9.6
2014-Aug-21 20:24N 36°53' E 012°59'9 9.4
2014-Aug-21 19:27N 36°56' E 012°49'8 9.6
2014-Aug-21 18:33N 36°58' E 012°39'10 9.8
2014-Aug-21 17:33N 37°01' E 012°27'10 9.9
2014-Aug-21 16:34N 37°04' E 012°15'1110.1
2014-Aug-21 15:31N 37°07' E 012°03'31 9.7
2014-Aug-21 12:21N 37°16' E 011°25'8 9.5
2014-Aug-21 11:33N 37°18' E 011°17'10 9.7
2014-Aug-21 10:32N 37°23' E 011°05'  

Dump ship's entire track history